الصفحة الرئيسية
METAR-TAF:

METAR-TAF

مطار :

أرومية, إيران

دائرة عرض: 37-32N, خط طول: 045-05E, ارتفاع: 1297 متر

مراقبة الطقس الحالي

تاريخ ووقت الإصدار 27 دقيقة قبل الساعة 04:00UTC
ريح 6 عقدة من الغرب
درجة الحرارة 8°درجة مئوية
الرطوبة 66%
ضغط 1017 hPa
الرؤية 10 كم أو أكثر
الغيوم لا تقل 1500 م ولا وجود لمزنة ركامية السحاب الأسود

METAR: OITR 130400Z 28006KT CAVOK 08/02 Q1017 A3003

زمن: 08:57 (04:27 UTC)

توقعات

تاريخ ووقت الإصدار 5ساعات و 27 دقيقة قبل الساعة 23:00UTC
التوقعات صالحة من13 الساعة 00 UTC إلى 14 الساعة 06 UTC
ريح 6 عقدة من الشرق/الشمال الشرقي
الرؤية: 8000 متر
غيوم قليلة على ارتفاع 3500 قدم
غيوم مفككة على ارتفاع 10000 قدم

TAF: OITR 122300Z 1300/1406 06006KT 8000 FEW035 BKN100

أرصاد الطقس والتوقعات من أكثر من 4000 مطار (تقارير الطقس للمطار METAR والتنبؤ بالطقس بالمطارTAF).

المحطات المتاحة هي النقط الصفراء والحمراء على الخريطة.

حرك المؤشر فوق النقطة لمعرفة اسم المحطة.

ثم انقر لمعرفة أرصاد وتوقعات الطقس.

لتغيير الخارطة: اضغط على الأزرار الخضراء مع رمز الصليب الأسود للتكبير. على الزر الأخضر مع شرطة للتصغير، أو على الأسهم الخضراء للخرائط المجاورة.


METAR-TAF: